Time;durP1;ratioP1;P1;durP2;ratioP2;P2;SDS_P1;SDS_P2;PMS_P1;PMS_P2;Temp;Humidity;BMP_temperature;BMP_pressure;BME280_temperature;BME280_humidity;BME280_pressure;Samples;Min_cycle;Max_cycle;Signal;HPM_P1;HPM_P2
2022/07/15 00:01:19;;;;;;;5.77;2.20;;;14.50;99.60;;;;;;5125744;28;20493;-80
2022/07/15 00:03:47;;;;;;;4.00;2.33;;;14.50;99.60;;;;;;5127166;28;20443;-83
2022/07/15 00:06:17;;;;;;;4.97;2.17;;;14.50;99.60;;;;;;5126216;28;20482;-80
2022/07/15 00:08:45;;;;;;;6.20;2.60;;;14.50;99.70;;;;;;5127454;28;20831;-82
2022/07/15 00:11:13;;;;;;;4.43;2.13;;;14.40;99.60;;;;;;5125015;28;20488;-80
2022/07/15 00:13:41;;;;;;;7.80;2.70;;;14.40;99.70;;;;;;5124508;28;21050;-81
2022/07/15 00:16:10;;;;;;;8.20;2.33;;;14.40;99.70;;;;;;5124674;28;20448;-81
2022/07/15 00:18:38;;;;;;;4.30;2.17;;;14.30;99.70;;;;;;5123466;28;20530;-80
2022/07/15 00:21:07;;;;;;;6.60;2.10;;;14.30;99.80;;;;;;5125106;28;20499;-82
2022/07/15 00:23:37;;;;;;;7.20;2.77;;;14.30;99.80;;;;;;5124388;28;20471;-80
2022/07/15 00:26:05;;;;;;;6.07;2.47;;;14.20;99.80;;;;;;5128056;28;20462;-83
2022/07/15 00:28:33;;;;;;;8.90;3.00;;;14.20;99.80;;;;;;5129008;28;20566;-81
2022/07/15 00:31:01;;;;;;;6.70;2.47;;;14.20;99.90;;;;;;5128735;28;20467;-81
2022/07/15 00:33:30;;;;;;;5.87;2.30;;;14.20;99.90;;;;;;5129503;28;20538;-81
2022/07/15 00:35:58;;;;;;;5.67;2.43;;;14.20;99.90;;;;;;5128943;28;20443;-79
2022/07/15 00:38:26;;;;;;;8.53;2.27;;;14.20;99.90;;;;;;5129108;28;20454;-80
2022/07/15 00:40:56;;;;;;;4.60;2.30;;;14.10;99.90;;;;;;5130917;28;20432;-79
2022/07/15 00:43:26;;;;;;;6.40;3.17;;;14.10;99.90;;;;;;5129774;28;20428;-81
2022/07/15 00:45:54;;;;;;;9.30;2.73;;;14.10;99.90;;;;;;5130816;28;20442;-82
2022/07/15 00:48:23;;;;;;;5.70;2.23;;;14.10;99.90;;;;;;5129696;28;20983;-82
2022/07/15 00:50:51;;;;;;;7.27;2.40;;;14.10;99.90;;;;;;5130543;28;20887;-82
2022/07/15 00:53:21;;;;;;;5.13;2.13;;;14.00;99.90;;;;;;5130209;28;20454;-81
2022/07/15 00:55:51;;;;;;;4.80;2.13;;;14.00;99.90;;;;;;5128513;28;20486;-80
2022/07/15 00:58:24;;;;;;;6.63;2.70;;;14.00;99.90;;;;;;5128107;28;20443;-81
2022/07/15 01:00:53;;;;;;;4.07;2.07;;;14.00;99.90;;;;;;5131421;28;20431;-80
2022/07/15 01:03:21;;;;;;;8.93;2.90;;;14.00;99.90;;;;;;5130085;28;20451;-83
2022/07/15 01:05:50;;;;;;;7.40;2.53;;;14.00;99.90;;;;;;5128550;28;20466;-83
2022/07/15 01:08:18;;;;;;;5.70;2.60;;;14.00;99.90;;;;;;5128165;28;21023;-81
2022/07/15 01:10:49;;;;;;;4.93;2.40;;;14.00;99.90;;;;;;5132245;28;20462;-82
2022/07/15 01:13:18;;;;;;;4.80;2.50;;;14.00;99.90;;;;;;5131849;28;20806;-83
2022/07/15 01:15:48;;;;;;;4.90;2.40;;;14.00;99.90;;;;;;5132278;28;20466;-83
2022/07/15 01:18:17;;;;;;;7.40;2.53;;;14.00;99.90;;;;;;5132182;28;20927;-81
2022/07/15 01:20:47;;;;;;;7.20;2.90;;;14.00;99.90;;;;;;5131517;28;20418;-82
2022/07/15 01:23:17;;;;;;;5.27;2.50;;;14.00;99.90;;;;;;5129486;28;20450;-82
2022/07/15 01:26:06;;;;;;;5.73;2.60;;;14.00;99.90;;;;;;5130567;28;20456;-83
2022/07/15 01:28:35;;;;;;;7.13;2.90;;;13.90;99.90;;;;;;5134918;28;20463;-81
2022/07/15 01:31:04;;;;;;;8.30;2.80;;;13.90;99.90;;;;;;5134973;28;20459;-81
2022/07/15 01:33:35;;;;;;;7.17;2.47;;;13.90;99.90;;;;;;5137082;28;20447;-81
2022/07/15 01:36:06;;;;;;;8.83;2.80;;;14.00;99.90;;;;;;5135630;28;20463;-82
2022/07/15 01:38:37;;;;;;;6.13;2.30;;;14.00;99.90;;;;;;5138811;28;20440;-82
2022/07/15 01:41:17;;;;;;;4.70;2.73;;;14.00;99.90;;;;;;5139026;28;20488;-82
2022/07/15 01:43:46;;;;;;;7.70;3.50;;;14.00;99.90;;;;;;5140931;28;20462;-82
2022/07/15 01:46:15;;;;;;;5.27;2.60;;;14.00;99.90;;;;;;5140325;28;20431;-82
2022/07/15 01:51:56;;;;;;;6.93;2.40;;;14.00;99.90;;;;;;5128788;28;20463;-83
2022/07/15 01:54:27;;;;;;;6.40;2.67;;;14.00;99.90;;;;;;5138347;28;20511;-80
2022/07/15 01:56:59;;;;;;;5.80;2.70;;;14.00;99.90;;;;;;5129999;28;20535;-80
2022/07/15 01:59:29;;;;;;;8.47;2.40;;;14.00;99.90;;;;;;5127043;28;20439;-80
2022/07/15 02:01:59;;;;;;;7.93;2.80;;;14.00;99.90;;;;;;5126271;28;20486;-80
2022/07/15 02:04:29;;;;;;;5.33;2.40;;;14.00;99.90;;;;;;5126140;28;20451;-81
2022/07/15 02:06:58;;;;;;;8.03;2.60;;;14.00;99.90;;;;;;5126011;28;20458;-80
2022/07/15 02:09:32;;;;;;;7.17;2.47;;;14.00;99.90;;;;;;5125553;28;20465;-82
2022/07/15 02:12:00;;;;;;;7.37;2.63;;;14.10;99.90;;;;;;5125703;28;20463;-82
2022/07/15 02:14:36;;;;;;;6.27;2.00;;;14.00;99.90;;;;;;5130626;28;20470;-82
2022/07/15 02:17:05;;;;;;;6.40;2.70;;;14.10;99.90;;;;;;5136123;28;20518;-84
2022/07/15 02:19:36;;;;;;;6.40;2.53;;;14.10;99.90;;;;;;5139035;28;20470;-83
2022/07/15 02:22:06;;;;;;;8.10;2.73;;;14.10;99.90;;;;;;5136722;28;20464;-83
2022/07/15 02:24:34;;;;;;;9.57;2.63;;;14.10;99.90;;;;;;5133993;28;20501;-83
2022/07/15 02:27:03;;;;;;;5.70;2.33;;;14.10;99.90;;;;;;5133415;28;20501;-83
2022/07/15 02:29:32;;;;;;;4.97;2.20;;;14.10;99.90;;;;;;5132734;28;20581;-83
2022/07/15 02:32:00;;;;;;;8.60;2.97;;;14.10;99.90;;;;;;5132784;28;20512;-83
2022/07/15 02:34:29;;;;;;;9.00;3.70;;;14.10;99.90;;;;;;5132506;28;20501;-83
2022/07/15 02:36:58;;;;;;;6.40;2.40;;;14.10;99.90;;;;;;5132389;28;20473;-83
2022/07/15 02:39:28;;;;;;;6.10;2.60;;;14.10;99.90;;;;;;5133034;28;20461;-82
2022/07/15 02:41:58;;;;;;;7.73;3.10;;;14.10;99.90;;;;;;5134232;28;20459;-83
2022/07/15 02:44:27;;;;;;;6.97;2.53;;;14.10;99.90;;;;;;5131782;28;20462;-83
2022/07/15 02:46:56;;;;;;;3.90;2.40;;;14.10;99.90;;;;;;5130301;28;20473;-82
2022/07/15 02:49:28;;;;;;;7.97;3.73;;;14.10;99.90;;;;;;5132248;28;20467;-83
2022/07/15 02:51:57;;;;;;;6.53;2.33;;;14.10;99.90;;;;;;5130844;28;20463;-83
2022/07/15 02:54:30;;;;;;;7.10;2.87;;;14.10;99.90;;;;;;5130967;28;20455;-83
2022/07/15 02:56:59;;;;;;;6.83;2.77;;;14.10;99.90;;;;;;5131323;28;20528;-82
2022/07/15 02:59:28;;;;;;;8.67;3.40;;;14.10;99.90;;;;;;5131494;28;20397;-83
2022/07/15 03:01:59;;;;;;;7.97;3.13;;;14.00;99.90;;;;;;5129676;28;20463;-82
2022/07/15 03:04:27;;;;;;;5.63;2.50;;;14.00;99.90;;;;;;5130073;28;20504;-83
2022/07/15 03:06:55;;;;;;;6.97;3.00;;;14.00;99.90;;;;;;5129499;28;20442;-83
2022/07/15 03:09:24;;;;;;;6.50;2.20;;;14.00;99.90;;;;;;5128912;28;20984;-82
2022/07/15 03:11:54;;;;;;;8.03;2.80;;;14.00;99.90;;;;;;5129550;28;20529;-83
2022/07/15 03:14:22;;;;;;;7.37;2.60;;;14.00;99.90;;;;;;5128471;28;20458;-83
2022/07/15 03:16:51;;;;;;;6.07;2.40;;;14.00;99.90;;;;;;5128405;28;20490;-81
2022/07/15 03:19:19;;;;;;;7.03;2.37;;;14.00;99.90;;;;;;5128149;28;20447;-80
2022/07/15 03:21:49;;;;;;;7.57;2.87;;;14.00;99.90;;;;;;5162852;27;20999;-80
2022/07/15 03:24:19;;;;;;;4.73;2.90;;;14.00;99.90;;;;;;5127279;28;20972;-82
2022/07/15 03:26:48;;;;;;;10.10;3.20;;;14.00;99.90;;;;;;5126944;28;20443;-82
2022/07/15 03:29:17;;;;;;;10.10;3.30;;;14.00;99.90;;;;;;5128932;28;20539;-81
2022/07/15 03:31:46;;;;;;;6.07;2.60;;;14.00;99.90;;;;;;5127676;28;20832;-83
2022/07/15 03:34:20;;;;;;;8.23;2.83;;;14.00;99.90;;;;;;5127735;28;20940;-81
2022/07/15 03:36:49;;;;;;;6.10;2.90;;;14.00;99.90;;;;;;5128124;28;20967;-82
2022/07/15 03:39:17;;;;;;;5.27;2.10;;;14.00;99.90;;;;;;5128212;28;20444;-82
2022/07/15 03:41:46;;;;;;;7.73;2.37;;;14.00;99.90;;;;;;5128119;28;20490;-82
2022/07/15 03:44:15;;;;;;;6.17;2.53;;;14.00;99.90;;;;;;5127854;28;20434;-82
2022/07/15 03:46:45;;;;;;;6.63;2.43;;;14.00;99.90;;;;;;5127447;28;20450;-82
2022/07/15 03:49:15;;;;;;;8.73;2.87;;;14.00;99.90;;;;;;5126986;28;20463;-82
2022/07/15 03:51:44;;;;;;;5.70;2.70;;;14.00;99.90;;;;;;5126510;28;20467;-82
2022/07/15 03:54:14;;;;;;;3.97;1.97;;;14.00;99.90;;;;;;5126155;28;20519;-82
2022/07/15 03:56:47;;;;;;;7.70;2.77;;;14.00;99.90;;;;;;5126384;28;20493;-82
2022/07/15 03:59:16;;;;;;;8.20;2.80;;;14.00;99.90;;;;;;5126907;28;20497;-82
2022/07/15 04:01:45;;;;;;;7.07;2.87;;;14.00;99.90;;;;;;5125410;28;20463;-82
2022/07/15 04:04:14;;;;;;;5.37;2.60;;;14.00;99.90;;;;;;5126840;28;20508;-82
2022/07/15 04:06:43;;;;;;;6.43;2.80;;;14.00;99.90;;;;;;5127917;28;20440;-82
2022/07/15 04:09:12;;;;;;;5.60;2.20;;;14.00;99.90;;;;;;5128427;28;20443;-81
2022/07/15 04:11:41;;;;;;;7.33;2.10;;;14.00;99.90;;;;;;5128293;28;20442;-82
2022/07/15 04:14:11;;;;;;;9.63;2.87;;;14.00;99.90;;;;;;5129114;28;20511;-83
2022/07/15 04:16:41;;;;;;;7.37;3.53;;;14.00;99.90;;;;;;5128502;28;20469;-83
2022/07/15 04:19:23;;;;;;;7.93;2.83;;;14.00;99.90;;;;;;5126293;28;20963;-82
2022/07/15 04:21:56;;;;;;;4.57;2.27;;;14.00;99.90;;;;;;5128312;28;20463;-82
2022/07/15 04:24:24;;;;;;;7.03;3.13;;;14.00;99.90;;;;;;5131685;28;20514;-83
2022/07/15 04:26:53;;;;;;;5.93;3.00;;;14.00;99.90;;;;;;5127652;28;20445;-82
2022/07/15 04:29:22;;;;;;;7.63;3.10;;;14.00;99.90;;;;;;5127112;28;20447;-84
2022/07/15 04:31:50;;;;;;;7.77;3.00;;;14.00;99.90;;;;;;5126789;28;20470;-83
2022/07/15 04:34:28;;;;;;;7.03;3.10;;;14.10;99.90;;;;;;5125992;28;20453;-82
2022/07/15 04:36:56;;;;;;;5.10;2.63;;;14.10;99.90;;;;;;5127456;28;20815;-82
2022/07/15 04:39:25;;;;;;;7.10;2.57;;;14.10;99.90;;;;;;5126291;28;20461;-83
2022/07/15 04:41:54;;;;;;;8.00;2.90;;;14.10;99.90;;;;;;5126593;28;20908;-82
2022/07/15 04:44:22;;;;;;;7.77;2.70;;;14.20;99.90;;;;;;5127497;28;20459;-82
2022/07/15 04:46:51;;;;;;;7.33;3.10;;;14.20;99.90;;;;;;5126383;28;20451;-83
2022/07/15 04:52:17;;;;;;;6.60;2.93;;;14.30;99.90;;;;;;5128205;28;20461;-82
2022/07/15 04:54:48;;;;;;;4.60;2.50;;;14.30;99.90;;;;;;5125470;28;20448;-82
2022/07/15 04:57:17;;;;;;;6.80;2.60;;;14.30;99.90;;;;;;5126524;28;20500;-82
2022/07/15 04:59:45;;;;;;;6.70;2.70;;;14.30;99.90;;;;;;5125523;28;20451;-83
2022/07/15 05:02:17;;;;;;;5.13;2.50;;;14.40;99.90;;;;;;5125072;28;20498;-82
2022/07/15 05:04:50;;;;;;;5.70;2.20;;;14.40;99.90;;;;;;5124401;28;20439;-82
2022/07/15 05:07:19;;;;;;;6.13;2.60;;;14.40;99.90;;;;;;5125361;28;20863;-83
2022/07/15 05:09:49;;;;;;;5.97;2.20;;;14.50;99.90;;;;;;5126200;28;20502;-82
2022/07/15 05:12:17;;;;;;;8.43;2.27;;;14.50;99.90;;;;;;5127748;28;20463;-83
2022/07/15 05:14:58;;;;;;;5.23;2.07;;;14.50;99.90;;;;;;5127879;28;20428;-83
2022/07/15 05:17:30;;;;;;;3.80;1.93;;;14.50;99.90;;;;;;5129314;28;20451;-83
2022/07/15 05:20:00;;;;;;;6.13;2.63;;;14.60;99.90;;;;;;5129186;28;20402;-83
2022/07/15 05:22:29;;;;;;;7.50;1.80;;;14.60;99.90;;;;;;5128849;28;20988;-83
2022/07/15 05:24:57;;;;;;;5.83;1.60;;;14.60;99.90;;;;;;5128121;28;20471;-83
2022/07/15 05:27:26;;;;;;;4.93;2.33;;;14.70;99.90;;;;;;5128537;28;20425;-83
2022/07/15 05:29:54;;;;;;;3.37;2.00;;;14.70;99.90;;;;;;5129482;28;20529;-83
2022/07/15 05:32:23;;;;;;;9.10;2.90;;;14.70;99.90;;;;;;5128969;28;20494;-84
2022/07/15 05:34:52;;;;;;;5.90;1.97;;;14.70;99.90;;;;;;5130117;28;20457;-82
2022/07/15 05:37:22;;;;;;;4.30;2.00;;;14.80;99.90;;;;;;5128467;28;20413;-83
2022/07/15 05:39:57;;;;;;;6.90;2.10;;;14.90;99.90;;;;;;5128659;28;20414;-83
2022/07/15 05:42:34;;;;;;;8.10;2.07;;;14.90;99.90;;;;;;5128787;28;21014;-83
2022/07/15 05:45:02;;;;;;;6.37;2.10;;;15.00;99.90;;;;;;5128743;28;20530;-83
2022/07/15 05:47:33;;;;;;;9.93;2.63;;;15.00;99.90;;;;;;5129229;28;20406;-82
2022/07/15 05:50:02;;;;;;;6.23;2.40;;;15.10;99.90;;;;;;5128783;28;20944;-84
2022/07/15 05:52:34;;;;;;;5.03;2.50;;;15.10;99.90;;;;;;5128767;28;20481;-82
2022/07/15 05:55:06;;;;;;;6.00;2.80;;;15.20;99.90;;;;;;5129523;28;20422;-83
2022/07/15 05:57:34;;;;;;;5.43;1.80;;;15.20;99.90;;;;;;5128901;28;20496;-82
2022/07/15 06:00:13;;;;;;;12.33;2.20;;;15.30;99.90;;;;;;5129436;28;20443;-82
2022/07/15 06:02:42;;;;;;;5.60;1.70;;;15.40;99.90;;;;;;5131256;28;20468;-83
2022/07/15 06:05:19;;;;;;;9.10;1.87;;;15.50;99.90;;;;;;5127772;28;20413;-82
2022/07/15 06:07:53;;;;;;;5.10;2.07;;;15.50;99.90;;;;;;5127667;28;20446;-81
2022/07/15 06:10:28;;;;;;;6.63;2.07;;;15.50;99.90;;;;;;5127130;28;20471;-83
2022/07/15 06:12:57;;;;;;;5.07;1.50;;;15.50;99.90;;;;;;5128282;28;20493;-81
2022/07/15 06:15:25;;;;;;;3.90;1.73;;;15.60;99.90;;;;;;5126692;28;20422;-81
2022/07/15 06:17:54;;;;;;;4.80;2.13;;;15.60;99.90;;;;;;5126204;28;20455;-83
2022/07/15 06:20:24;;;;;;;4.07;1.70;;;15.60;99.90;;;;;;5126601;28;20435;-84
2022/07/15 06:22:55;;;;;;;4.70;1.40;;;15.70;99.90;;;;;;5160134;27;20438;-81
2022/07/15 06:25:24;;;;;;;4.50;1.43;;;15.70;99.90;;;;;;5126559;28;20447;-83
2022/07/15 06:27:53;;;;;;;4.30;2.23;;;15.80;99.90;;;;;;5127142;28;20418;-81
2022/07/15 06:30:22;;;;;;;4.53;2.00;;;15.80;99.90;;;;;;5126329;28;20426;-83
2022/07/15 06:32:50;;;;;;;3.27;1.50;;;15.90;99.90;;;;;;5126544;28;20442;-83
2022/07/15 06:35:19;;;;;;;5.70;1.80;;;15.90;99.90;;;;;;5124162;28;20426;-83
2022/07/15 06:37:48;;;;;;;5.00;1.90;;;15.90;99.90;;;;;;5125302;28;20525;-82
2022/07/15 06:40:18;;;;;;;4.80;1.60;;;16.00;99.90;;;;;;5131414;28;20510;-83
2022/07/15 06:42:47;;;;;;;4.77;1.70;;;16.00;99.90;;;;;;5131286;28;20459;-83
2022/07/15 06:45:25;;;;;;;4.60;1.87;;;16.10;99.90;;;;;;5136284;28;20458;-81
2022/07/15 06:47:53;;;;;;;5.57;1.70;;;16.10;99.90;;;;;;5138348;28;20418;-81
2022/07/15 06:50:24;;;;;;;4.17;1.50;;;16.10;99.90;;;;;;5139909;28;20439;-81
2022/07/15 06:52:53;;;;;;;3.80;1.57;;;16.20;99.90;;;;;;5140063;28;20437;-81
2022/07/15 06:55:24;;;;;;;4.73;1.40;;;16.20;99.90;;;;;;5140400;28;20439;-81
2022/07/15 06:57:52;;;;;;;4.20;1.70;;;16.20;99.90;;;;;;5133924;28;20447;-82
2022/07/15 07:00:21;;;;;;;3.63;1.67;;;16.20;99.90;;;;;;5134534;28;20426;-82
2022/07/15 07:02:49;;;;;;;5.80;1.53;;;16.30;99.90;;;;;;5131657;28;20459;-82
2022/07/15 07:05:18;;;;;;;3.57;1.50;;;16.30;99.90;;;;;;5126984;28;20531;-83
2022/07/15 07:07:46;;;;;;;3.10;1.20;;;16.30;99.90;;;;;;5119990;28;20414;-81
2022/07/15 07:10:15;;;;;;;3.33;1.40;;;16.30;99.90;;;;;;5122347;28;20430;-84
2022/07/15 07:12:51;;;;;;;3.97;2.63;;;16.40;99.90;;;;;;5122200;28;20461;-83
2022/07/15 07:15:21;;;;;;;4.80;1.43;;;16.40;99.90;;;;;;5122340;28;20447;-82
2022/07/15 07:17:49;;;;;;;4.10;1.60;;;16.40;99.90;;;;;;5121875;28;20426;-83
2022/07/15 07:20:18;;;;;;;3.93;1.30;;;16.40;99.90;;;;;;5123071;28;20510;-83
2022/07/15 07:22:47;;;;;;;4.40;1.10;;;16.40;99.90;;;;;;5122691;28;20459;-81
2022/07/15 07:25:15;;;;;;;4.63;1.30;;;16.40;99.90;;;;;;5120238;28;20436;-81
2022/07/15 07:27:43;;;;;;;3.70;1.20;;;16.40;99.90;;;;;;5159816;27;20516;-81
2022/07/15 07:30:13;;;;;;;5.63;1.20;;;16.40;99.90;;;;;;5137180;28;20439;-80
2022/07/15 07:32:41;;;;;;;4.17;1.47;;;16.40;99.90;;;;;;5136220;28;20543;-80
2022/07/15 07:35:10;;;;;;;1.80;1.30;;;16.40;99.90;;;;;;5128958;28;20447;-82
2022/07/15 07:37:38;;;;;;;4.80;1.83;;;16.40;99.90;;;;;;5123426;28;20424;-83
2022/07/15 07:40:08;;;;;;;2.97;1.00;;;16.40;99.90;;;;;;5121194;28;20422;-83
2022/07/15 07:42:38;;;;;;;4.17;1.60;;;16.40;99.90;;;;;;5121996;28;20477;-84
2022/07/15 07:45:07;;;;;;;3.80;1.50;;;16.40;99.90;;;;;;5121853;28;20483;-82
2022/07/15 07:47:39;;;;;;;3.63;1.40;;;16.40;99.90;;;;;;5121875;28;20475;-85
2022/07/15 07:50:09;;;;;;;4.00;1.40;;;16.50;99.90;;;;;;5120175;28;20444;-83
2022/07/15 07:52:38;;;;;;;4.73;1.50;;;16.50;99.90;;;;;;5119391;28;20441;-81
2022/07/15 07:55:07;;;;;;;3.50;1.70;;;16.50;99.90;;;;;;5120443;28;20938;-82
2022/07/15 07:57:36;;;;;;;4.70;1.40;;;16.50;99.90;;;;;;5120869;28;20411;-83
2022/07/15 08:00:08;;;;;;;2.93;1.40;;;16.60;99.90;;;;;;5124604;28;20522;-83
2022/07/15 08:02:41;;;;;;;2.90;0.90;;;16.60;99.90;;;;;;5124627;28;20422;-84
2022/07/15 08:05:10;;;;;;;3.30;0.90;;;16.70;99.90;;;;;;5120738;28;20446;-82
2022/07/15 08:07:38;;;;;;;3.33;1.57;;;16.80;99.90;;;;;;5120026;28;20424;-80
2022/07/15 08:10:08;;;;;;;3.00;0.93;;;16.80;99.90;;;;;;5119520;28;20422;-81
2022/07/15 08:12:38;;;;;;;4.30;1.20;;;16.90;99.90;;;;;;5119827;28;20446;-82
2022/07/15 08:15:10;;;;;;;4.07;1.13;;;17.00;99.90;;;;;;5119248;28;20995;-83
2022/07/15 08:17:40;;;;;;;3.10;1.10;;;17.30;99.90;;;;;;5119382;28;20429;-83
2022/07/15 08:20:10;;;;;;;3.47;1.03;;;17.50;99.90;;;;;;5119445;28;20463;-84
2022/07/15 08:22:39;;;;;;;3.43;1.10;;;17.70;99.90;;;;;;5119798;28;20456;-83
2022/07/15 08:25:08;;;;;;;1.97;0.90;;;18.00;99.90;;;;;;5119259;28;20960;-82
2022/07/15 08:27:36;;;;;;;3.40;1.20;;;18.20;99.90;;;;;;5120889;28;20579;-84
2022/07/15 08:30:06;;;;;;;4.10;2.00;;;18.30;99.90;;;;;;5120200;28;20439;-84
2022/07/15 08:32:34;;;;;;;2.40;1.03;;;18.50;99.90;;;;;;5120315;28;20478;-84
2022/07/15 08:35:05;;;;;;;2.93;0.70;;;18.60;99.90;;;;;;5122163;28;20484;-82
2022/07/15 08:37:40;;;;;;;2.57;0.80;;;18.70;99.90;;;;;;5119779;28;20435;-83
2022/07/15 08:40:10;;;;;;;1.83;0.63;;;18.80;99.90;;;;;;5119007;28;20963;-82
2022/07/15 08:42:42;;;;;;;2.20;1.00;;;18.80;99.90;;;;;;5120071;28;21057;-82
2022/07/15 08:45:11;;;;;;;5.07;0.93;;;18.90;99.90;;;;;;5119576;28;20447;-80
2022/07/15 08:47:43;;;;;;;2.80;0.90;;;19.00;99.90;;;;;;5121188;28;20451;-83
2022/07/15 08:50:23;;;;;;;2.80;0.80;;;19.20;99.80;;;;;;5122539;28;20481;-82
2022/07/15 08:52:52;;;;;;;2.10;0.83;;;19.30;99.50;;;;;;5122807;28;20836;-83
2022/07/15 08:55:21;;;;;;;3.10;1.03;;;19.40;99.20;;;;;;5122377;28;20446;-84
2022/07/15 08:57:52;;;;;;;2.90;0.90;;;19.50;99.00;;;;;;5123902;28;20447;-83
2022/07/15 09:00:22;;;;;;;1.77;0.83;;;19.60;98.90;;;;;;5123576;28;20450;-84
2022/07/15 09:02:50;;;;;;;4.20;1.20;;;19.60;98.70;;;;;;5122402;28;21050;-83
2022/07/15 09:05:26;;;;;;;3.53;0.90;;;19.70;98.40;;;;;;5124427;28;20435;-81
2022/07/15 09:07:59;;;;;;;2.80;1.47;;;19.80;98.20;;;;;;5124575;28;20443;-82
2022/07/15 09:10:46;;;;;;;1.73;0.70;;;19.90;98.10;;;;;;5123811;28;20450;-83
2022/07/15 09:13:26;;;;;;;2.20;0.80;;;20.00;97.70;;;;;;5125140;28;20490;-81
2022/07/15 09:16:08;;;;;;;4.27;1.00;;;20.10;97.60;;;;;;5127862;28;20443;-83
2022/07/15 09:18:41;;;;;;;3.60;1.00;;;20.10;97.20;;;;;;5128799;28;20454;-82
2022/07/15 09:21:19;;;;;;;3.23;0.90;;;20.20;97.20;;;;;;5127764;28;20462;-82
2022/07/15 09:23:47;;;;;;;4.53;0.90;;;20.30;97.00;;;;;;5127924;28;20442;-82
2022/07/15 09:26:26;;;;;;;2.53;0.90;;;20.30;96.90;;;;;;5123160;28;20443;-81
2022/07/15 09:28:55;;;;;;;3.80;1.10;;;20.20;96.50;;;;;;5124805;28;20784;-82
2022/07/15 09:34:18;;;;;;;4.23;1.00;;;20.20;96.60;;;;;;5126416;28;20982;-80
2022/07/15 09:36:50;;;;;;;2.73;0.90;;;20.30;96.50;;;;;;5126681;28;20450;-83
2022/07/15 09:39:20;;;;;;;2.57;0.83;;;20.30;96.10;;;;;;5127032;28;20433;-80
2022/07/15 09:41:49;;;;;;;3.73;1.13;;;20.40;96.20;;;;;;5124418;28;20462;-81
2022/07/15 09:44:19;;;;;;;2.27;0.90;;;20.40;96.20;;;;;;5123964;28;20481;-81
2022/07/15 09:46:49;;;;;;;2.93;1.70;;;20.40;96.20;;;;;;5123426;28;20488;-81
2022/07/15 09:49:32;;;;;;;3.40;1.13;;;20.30;96.10;;;;;;5123559;28;20450;-82
2022/07/15 09:52:06;;;;;;;5.20;1.00;;;20.20;95.80;;;;;;5125679;28;20455;-81
2022/07/15 09:54:36;;;;;;;3.07;0.80;;;20.10;95.80;;;;;;5132474;28;20436;-82
2022/07/15 09:57:07;;;;;;;1.77;0.70;;;20.00;95.70;;;;;;5131138;28;20977;-82
2022/07/15 09:59:36;;;;;;;2.53;1.00;;;19.90;95.60;;;;;;5119526;28;20796;-80
2022/07/15 10:02:08;;;;;;;5.00;1.50;;;19.80;95.60;;;;;;5122371;28;20450;-83
2022/07/15 10:04:37;;;;;;;2.23;0.90;;;19.70;95.80;;;;;;5123439;28;20530;-83
2022/07/15 10:07:07;;;;;;;4.97;1.00;;;19.50;96.20;;;;;;5122406;28;20451;-83
2022/07/15 10:09:56;;;;;;;3.43;1.00;;;19.30;96.60;;;;;;5124028;28;20431;-82
2022/07/15 10:12:47;;;;;;;2.60;1.20;;;19.10;96.90;;;;;;5122889;28;20471;-82
2022/07/15 10:15:25;;;;;;;1.80;0.80;;;18.90;97.50;;;;;;5122757;28;20459;-81
2022/07/15 10:18:15;;;;;;;3.13;0.80;;;18.70;97.60;;;;;;5125565;28;20423;-81
2022/07/15 10:21:07;;;;;;;2.10;0.80;;;18.50;97.90;;;;;;5122169;28;20846;-83
2022/07/15 10:24:11;;;;;;;1.63;0.87;;;18.30;98.10;;;;;;5121780;28;20534;-81
2022/07/15 10:26:51;;;;;;;2.47;1.00;;;18.10;98.50;;;;;;5121700;28;20484;-84
2022/07/15 10:29:20;;;;;;;2.60;1.10;;;18.10;98.70;;;;;;5120215;28;20475;-81
2022/07/15 10:31:57;;;;;;;2.13;0.77;;;18.00;98.90;;;;;;5119603;28;21026;-80
2022/07/15 10:34:30;;;;;;;3.63;1.27;;;17.90;99.10;;;;;;5122248;28;20518;-81
2022/07/15 10:37:01;;;;;;;2.50;1.17;;;17.90;99.30;;;;;;5122726;28;20428;-83
2022/07/15 10:39:50;;;;;;;3.07;0.87;;;17.90;99.50;;;;;;5122827;28;20494;-81
2022/07/15 10:42:19;;;;;;;2.23;0.83;;;18.00;99.90;;;;;;5123714;28;20459;-81
2022/07/15 10:45:04;;;;;;;1.90;0.87;;;18.10;99.90;;;;;;5124031;28;20459;-84
2022/07/15 10:47:34;;;;;;;1.53;0.60;;;18.10;99.90;;;;;;5122305;28;20435;-82
2022/07/15 10:50:39;;;;;;;1.93;0.70;;;18.20;99.90;;;;;;5123740;28;20469;-82
2022/07/15 10:53:18;;;;;;;1.80;0.73;;;18.20;99.90;;;;;;5122519;28;20478;-82
2022/07/15 10:55:48;;;;;;;3.43;1.00;;;18.20;99.90;;;;;;5123869;28;20928;-82
2022/07/15 10:58:17;;;;;;;2.83;1.10;;;18.20;99.90;;;;;;5124731;28;20439;-84
2022/07/15 11:00:47;;;;;;;6.53;1.10;;;18.30;99.90;;;;;;5123831;28;20450;-84
2022/07/15 11:03:17;;;;;;;2.37;0.90;;;18.30;99.90;;;;;;5124309;28;20968;-81
2022/07/15 11:06:04;;;;;;;1.60;0.80;;;18.40;99.90;;;;;;5124284;28;20444;-84
2022/07/15 11:09:01;;;;;;;1.90;0.80;;;18.50;99.90;;;;;;5123046;28;20496;-82
2022/07/15 11:11:50;;;;;;;1.70;0.70;;;18.50;99.90;;;;;;5123432;28;20467;-83
2022/07/15 11:14:42;;;;;;;1.83;0.70;;;18.50;99.90;;;;;;5123957;28;20987;-81
2022/07/15 11:17:11;;;;;;;3.03;0.80;;;18.50;99.90;;;;;;5123946;28;20451;-82
2022/07/15 11:19:40;;;;;;;3.93;0.97;;;18.60;99.90;;;;;;5124077;28;21041;-82
2022/07/15 11:22:10;;;;;;;1.80;0.77;;;18.60;99.90;;;;;;5124347;28;20816;-83
2022/07/15 11:24:38;;;;;;;2.50;0.73;;;18.70;99.90;;;;;;5124035;28;20489;-81
2022/07/15 11:27:09;;;;;;;3.10;0.93;;;18.80;99.90;;;;;;5122472;28;20443;-82
2022/07/15 11:29:49;;;;;;;1.80;0.77;;;18.90;99.90;;;;;;5122605;28;20475;-83
2022/07/15 11:32:20;;;;;;;2.03;0.87;;;19.00;99.90;;;;;;5123256;28;20463;-83
2022/07/15 11:34:51;;;;;;;4.30;1.17;;;19.20;99.90;;;;;;5122556;28;20495;-83
2022/07/15 11:37:24;;;;;;;2.60;1.23;;;19.20;99.90;;;;;;5129648;28;20476;-82
2022/07/15 11:40:08;;;;;;;5.10;1.07;;;19.30;99.90;;;;;;5133080;28;20448;-82
2022/07/15 11:45:36;;;;;;;3.27;1.07;;;19.40;99.90;;;;;;5136592;28;20519;-83
2022/07/15 11:48:06;;;;;;;5.43;1.37;;;19.40;99.90;;;;;;5139080;28;20428;-80
2022/07/15 11:50:37;;;;;;;2.73;1.20;;;19.40;99.90;;;;;;5139917;28;20426;-82
2022/07/15 11:53:13;;;;;;;4.70;0.90;;;19.50;99.90;;;;;;5134179;28;20463;-81
2022/07/15 11:55:53;;;;;;;3.13;0.87;;;19.60;99.90;;;;;;5122530;28;20487;-81
2022/07/15 11:58:31;;;;;;;1.60;0.70;;;19.70;99.90;;;;;;5122118;28;20419;-81
2022/07/15 12:01:01;;;;;;;1.97;0.73;;;19.70;99.90;;;;;;5118792;28;20435;-81
2022/07/15 12:03:34;;;;;;;2.87;0.90;;;19.80;99.90;;;;;;5118789;28;20438;-83
2022/07/15 12:06:05;;;;;;;3.63;1.00;;;19.80;99.90;;;;;;5122744;28;20465;-82
2022/07/15 12:08:39;;;;;;;2.20;0.97;;;19.80;99.80;;;;;;5122723;28;20476;-81
2022/07/15 12:11:16;;;;;;;1.90;1.00;;;19.90;99.70;;;;;;5124341;28;20479;-81
2022/07/15 12:13:50;;;;;;;3.00;0.90;;;20.00;99.60;;;;;;5124724;28;20488;-83
2022/07/15 12:16:25;;;;;;;2.80;1.10;;;20.10;99.50;;;;;;5124808;28;20439;-83
2022/07/15 12:18:56;;;;;;;1.77;0.70;;;20.10;99.40;;;;;;5123009;28;20628;-84
2022/07/15 12:21:26;;;;;;;1.50;0.90;;;20.20;99.40;;;;;;5156838;27;20471;-84
2022/07/15 12:24:09;;;;;;;2.03;1.00;;;20.20;99.20;;;;;;5116408;28;20449;-83
2022/07/15 12:26:41;;;;;;;3.70;1.00;;;20.20;98.90;;;;;;5116992;28;20428;-79
2022/07/15 12:29:12;;;;;;;2.13;1.00;;;20.20;98.90;;;;;;5115501;28;21033;-81
2022/07/15 12:31:43;;;;;;;2.73;1.00;;;20.20;98.90;;;;;;5117475;28;20875;-81
2022/07/15 12:34:11;;;;;;;1.67;0.80;;;20.20;98.90;;;;;;5151479;27;20528;-81
2022/07/15 12:36:40;;;;;;;2.17;1.03;;;20.10;98.80;;;;;;5130521;28;20447;-83
2022/07/15 12:39:15;;;;;;;2.03;0.90;;;20.10;98.70;;;;;;5118155;28;20455;-83
2022/07/15 12:42:01;;;;;;;2.97;0.70;;;20.00;98.10;;;;;;5117398;28;20905;-81
2022/07/15 12:44:32;;;;;;;3.47;0.70;;;19.90;97.80;;;;;;5116184;28;20500;-83
2022/07/15 12:47:04;;;;;;;3.30;1.60;;;19.80;97.80;;;;;;5115468;28;20447;-82
2022/07/15 12:49:53;;;;;;;2.40;0.97;;;19.70;97.90;;;;;;5115680;28;20450;-82
2022/07/15 12:52:31;;;;;;;2.57;0.73;;;19.60;98.20;;;;;;5114090;28;20499;-81
2022/07/15 12:55:01;;;;;;;1.50;0.73;;;19.50;98.50;;;;;;5115548;28;20508;-81
2022/07/15 12:57:33;;;;;;;1.97;0.90;;;19.40;98.70;;;;;;5115664;28;20447;-84
2022/07/15 13:00:06;;;;;;;1.57;0.70;;;19.40;99.10;;;;;;5116482;28;20470;-81
2022/07/15 13:02:55;;;;;;;3.43;1.00;;;19.40;99.30;;;;;;5118017;28;20512;-80
2022/07/15 13:05:24;;;;;;;3.87;0.90;;;19.50;99.40;;;;;;5116089;28;20459;-81
2022/07/15 13:07:52;;;;;;;3.03;0.80;;;19.50;99.50;;;;;;5115548;28;20441;-80
2022/07/15 13:10:21;;;;;;;2.37;0.70;;;19.60;99.60;;;;;;5115342;28;20482;-81
2022/07/15 13:12:50;;;;;;;4.00;0.83;;;19.70;99.60;;;;;;5115128;28;20874;-82
2022/07/15 13:15:20;;;;;;;2.50;0.80;;;19.80;99.70;;;;;;5114798;28;20463;-81
2022/07/15 13:17:51;;;;;;;1.73;0.80;;;20.00;99.60;;;;;;5115852;28;20439;-83
2022/07/15 13:20:21;;;;;;;1.87;0.87;;;20.10;99.60;;;;;;5122664;28;20452;-82